Time;durP1;ratioP1;P1;durP2;ratioP2;P2;SDS_P1;SDS_P2;PMS_P1;PMS_P2;Temp;Humidity;BMP_temperature;BMP_pressure;BME280_temperature;BME280_humidity;BME280_pressure;Samples;Min_cycle;Max_cycle;Signal;HPM_P1;HPM_P2
2022/08/26 00:00:41;;;;;;;;;;;21.20;99.90;;;;;;5090437;28;19924;-81
2022/08/26 00:03:06;;;;;;;;;;;21.20;99.90;;;;;;5090521;28;20014;-81
2022/08/26 00:05:32;;;;;;;;;;;21.10;99.90;;;;;;5088131;28;20018;-81
2022/08/26 00:07:58;;;;;;;;;;;21.20;99.90;;;;;;5091031;28;19947;-81
2022/08/26 00:10:23;;;;;;;;;;;21.10;99.90;;;;;;5090801;28;20422;-81
2022/08/26 00:12:49;;;;;;;;;;;21.10;99.90;;;;;;5089245;28;20370;-81
2022/08/26 00:15:17;;;;;;;;;;;21.10;99.90;;;;;;5090078;28;20060;-81
2022/08/26 00:17:43;;;;;;;;;;;21.10;99.90;;;;;;5090353;28;19924;-81
2022/08/26 00:20:10;;;;;;;;;;;21.10;99.90;;;;;;5089609;28;19928;-81
2022/08/26 00:22:35;;;;;;;;;;;21.10;99.90;;;;;;5090085;28;19957;-80
2022/08/26 00:25:01;;;;;;;;;;;21.00;99.90;;;;;;5090921;28;19924;-80
2022/08/26 00:27:27;;;;;;;;;;;21.00;99.90;;;;;;5090515;28;19967;-81
2022/08/26 00:29:52;;;;;;;;;;;21.00;99.90;;;;;;5090192;28;19924;-81
2022/08/26 00:32:18;;;;;;;;;;;21.00;99.90;;;;;;5090787;28;19928;-81
2022/08/26 00:34:43;;;;;;;;;;;21.00;99.90;;;;;;5088866;28;19931;-81
2022/08/26 00:37:09;;;;;;;;;;;20.90;99.90;;;;;;5089879;28;19974;-80
2022/08/26 00:39:34;;;;;;;;;;;20.90;99.90;;;;;;5090666;28;19968;-81
2022/08/26 00:42:00;;;;;;;;;;;20.90;99.90;;;;;;5090240;28;20020;-81
2022/08/26 00:44:25;;;;;;;;;;;20.90;99.90;;;;;;5090419;28;20073;-80
2022/08/26 00:46:57;;;;;;;;;;;20.90;99.90;;;;;;5090094;28;19924;-81
2022/08/26 00:49:26;;;;;;;;;;;20.90;99.90;;;;;;5089354;28;19924;-81
2022/08/26 00:51:54;;;;;;;;;;;20.90;99.90;;;;;;5090121;28;19925;-81
2022/08/26 00:54:21;;;;;;;;;;;20.90;99.90;;;;;;5089879;28;19924;-80
2022/08/26 00:56:47;;;;;;;;;;;20.90;99.90;;;;;;5090230;28;19931;-81
2022/08/26 00:59:13;;;;;;;;;;;20.90;99.90;;;;;;5090495;28;19924;-81
2022/08/26 01:01:40;;;;;;;;;;;20.90;99.90;;;;;;5103963;22;20282;-73
2022/08/26 01:04:05;;;;;;;;;;;20.90;99.90;;;;;;5048696;28;19925;-74
2022/08/26 01:06:31;;;;;;;;;;;20.80;99.90;;;;;;5048714;28;19925;-73
2022/08/26 01:08:56;;;;;;;;;;;20.80;99.90;;;;;;5062043;28;19979;-73
2022/08/26 01:11:22;;;;;;;;;;;20.80;99.90;;;;;;5044943;28;20378;-74
2022/08/26 01:13:49;;;;;;;;;;;20.80;99.90;;;;;;5046383;28;19979;-73
2022/08/26 01:16:15;;;;;;;;;;;20.70;99.90;;;;;;5045340;28;20448;-74
2022/08/26 01:18:42;;;;;;;;;;;20.70;99.90;;;;;;5043563;28;20019;-73
2022/08/26 01:21:27;;;;;;;;;;;20.70;99.90;;;;;;5045523;28;19971;-73
2022/08/26 01:23:53;;;;;;;;;;;20.60;99.90;;;;;;5045331;28;19932;-73
2022/08/26 01:26:24;;;;;;;;;;;20.60;99.90;;;;;;5045013;28;19933;-74
2022/08/26 01:28:51;;;;;;;;;;;20.60;99.90;;;;;;5046054;28;20015;-73
2022/08/26 01:31:17;;;;;;;;;;;20.60;99.90;;;;;;5045904;28;19924;-73
2022/08/26 01:33:49;;;;;;;;;;;20.50;99.90;;;;;;5043696;28;19929;-73
2022/08/26 01:36:15;;;;;;;;;;;20.50;99.90;;;;;;5024858;28;20039;-73
2022/08/26 01:38:41;;;;;;;;;;;20.50;99.90;;;;;;5024301;28;19983;-74
2022/08/26 01:41:08;;;;;;;;;;;20.50;99.90;;;;;;5026439;28;19932;-73
2022/08/26 01:43:36;;;;;;;;;;;20.50;99.90;;;;;;5025681;28;19928;-73
2022/08/26 01:46:02;;;;;;;;;;;20.40;99.90;;;;;;5026090;28;19931;-74
2022/08/26 01:48:30;;;;;;;;;;;20.40;99.90;;;;;;5043219;28;20391;-73
2022/08/26 01:50:56;;;;;;;;;;;20.40;99.90;;;;;;5046190;28;20218;-73
2022/08/26 01:53:22;;;;;;;;;;;20.40;99.90;;;;;;5045702;28;20016;-74
2022/08/26 01:55:51;;;;;;;;;;;20.40;99.90;;;;;;5045291;28;19947;-73
2022/08/26 01:58:19;;;;;;;;;;;20.40;99.90;;;;;;5044545;28;19927;-73
2022/08/26 02:00:45;;;;;;;;;;;20.40;99.90;;;;;;5043943;28;19925;-73
2022/08/26 02:03:17;;;;;;;;;;;20.30;99.90;;;;;;5044189;28;20427;-73
2022/08/26 02:05:56;;;;;;;;;;;20.30;99.90;;;;;;5044541;28;19970;-73
2022/08/26 02:08:24;;;;;;;;;;;20.30;99.90;;;;;;5045550;28;20070;-73
2022/08/26 02:10:49;;;;;;;;;;;20.30;99.90;;;;;;5045045;28;19932;-73
2022/08/26 02:13:16;;;;;;;;;;;20.30;99.90;;;;;;5058202;28;21480;-73
2022/08/26 02:15:43;;;;;;;;;;;20.30;99.90;;;;;;5060606;28;19924;-74
2022/08/26 02:18:09;;;;;;;;;;;20.30;99.90;;;;;;5043721;28;19929;-73
2022/08/26 02:20:35;;;;;;;;;;;20.30;99.90;;;;;;5042364;28;19944;-74
2022/08/26 02:23:01;;;;;;;;;;;20.30;99.90;;;;;;5045576;28;20306;-74
2022/08/26 02:25:26;;;;;;;;;;;20.30;99.90;;;;;;5045571;28;19971;-73
2022/08/26 02:27:53;;;;;;;;;;;20.20;99.90;;;;;;5060444;28;20427;-73
2022/08/26 02:30:20;;;;;;;;;;;20.20;99.90;;;;;;5044956;28;19928;-74
2022/08/26 02:32:46;;;;;;;;;;;20.20;99.90;;;;;;5044802;28;19925;-73
2022/08/26 02:35:13;;;;;;;;;;;20.20;99.90;;;;;;5044301;28;20470;-74
2022/08/26 02:37:38;;;;;;;;;;;20.20;99.90;;;;;;5044659;28;20428;-74
2022/08/26 02:40:05;;;;;;;;;;;20.30;99.90;;;;;;5043798;28;19928;-73
2022/08/26 02:42:30;;;;;;;;;;;20.20;99.90;;;;;;5043727;28;19932;-74
2022/08/26 02:44:55;;;;;;;;;;;20.20;99.90;;;;;;5044916;28;19932;-73
2022/08/26 02:47:21;;;;;;;;;;;20.20;99.90;;;;;;5044976;28;19925;-73
2022/08/26 02:49:46;;;;;;;;;;;20.20;99.90;;;;;;5043799;28;19932;-73
2022/08/26 02:52:12;;;;;;;;;;;20.20;99.90;;;;;;5045080;28;20382;-73
2022/08/26 02:54:38;;;;;;;;;;;20.20;99.90;;;;;;5044692;28;19932;-74
2022/08/26 02:57:04;;;;;;;;;;;20.20;99.90;;;;;;5044827;28;19929;-73
2022/08/26 02:59:30;;;;;;;;;;;20.20;99.90;;;;;;5043246;28;19931;-74
2022/08/26 03:01:56;;;;;;;;;;;20.20;99.90;;;;;;5043346;28;19932;-73
2022/08/26 03:04:22;;;;;;;;;;;20.20;99.90;;;;;;5042655;28;19925;-73
2022/08/26 03:06:49;;;;;;;;;;;20.20;99.90;;;;;;5043441;28;20519;-73
2022/08/26 03:09:15;;;;;;;;;;;20.20;99.90;;;;;;5043092;28;19924;-74
2022/08/26 03:11:40;;;;;;;;;;;20.10;99.90;;;;;;5042789;28;20098;-74
2022/08/26 03:14:06;;;;;;;;;;;20.10;99.90;;;;;;5044657;28;20071;-74
2022/08/26 03:16:35;;;;;;;;;;;20.10;99.90;;;;;;5043453;28;20390;-73
2022/08/26 03:19:01;;;;;;;;;;;20.10;99.90;;;;;;5043683;28;19947;-74
2022/08/26 03:21:27;;;;;;;;;;;20.10;99.90;;;;;;5044832;28;19925;-73
2022/08/26 03:23:53;;;;;;;;;;;20.10;99.90;;;;;;5042994;28;19925;-73
2022/08/26 03:26:18;;;;;;;;;;;20.10;99.90;;;;;;5042930;28;19982;-73
2022/08/26 03:31:28;;;;;;;;;;;20.00;99.90;;;;;;5044171;28;19931;-73
2022/08/26 03:33:53;;;;;;;;;;;20.00;99.90;;;;;;5043855;28;19956;-73
2022/08/26 03:36:19;;;;;;;;;;;20.00;99.90;;;;;;5043254;28;20426;-74
2022/08/26 03:38:45;;;;;;;;;;;20.00;99.90;;;;;;5042174;28;19925;-73
2022/08/26 03:41:11;;;;;;;;;;;20.00;99.90;;;;;;5059244;28;19925;-73
2022/08/26 03:43:37;;;;;;;;;;;20.00;99.90;;;;;;5042615;28;19979;-73
2022/08/26 03:46:06;;;;;;;;;;;20.10;99.90;;;;;;5059714;28;19924;-73
2022/08/26 03:48:32;;;;;;;;;;;20.00;99.90;;;;;;5042973;28;19978;-73
2022/08/26 03:50:59;;;;;;;;;;;20.00;99.90;;;;;;5043284;28;19932;-73
2022/08/26 03:53:24;;;;;;;;;;;20.00;99.90;;;;;;5044228;28;19932;-73
2022/08/26 03:55:50;;;;;;;;;;;20.00;99.90;;;;;;5059248;28;19925;-73
2022/08/26 03:58:15;;;;;;;;;;;20.00;99.90;;;;;;5043761;28;19983;-73
2022/08/26 04:00:41;;;;;;;;;;;20.00;99.90;;;;;;5043435;28;19924;-73
2022/08/26 04:03:06;;;;;;;;;;;20.00;99.90;;;;;;5042891;28;19924;-73
2022/08/26 04:05:32;;;;;;;;;;;19.90;99.90;;;;;;5043563;28;20445;-73
2022/08/26 04:07:57;;;;;;;;;;;19.90;99.90;;;;;;5044417;28;19931;-74
2022/08/26 04:10:23;;;;;;;;;;;19.90;99.90;;;;;;5042260;28;19948;-73
2022/08/26 04:12:50;;;;;;;;;;;19.90;99.90;;;;;;5041883;28;19936;-73
2022/08/26 04:15:16;;;;;;;;;;;19.90;99.90;;;;;;5043891;28;19924;-74
2022/08/26 04:17:42;;;;;;;;;;;19.90;99.90;;;;;;5042336;28;19928;-73
2022/08/26 04:20:07;;;;;;;;;;;19.90;99.90;;;;;;5042819;28;19968;-73
2022/08/26 04:22:33;;;;;;;;;;;19.90;99.90;;;;;;5042137;28;20015;-73
2022/08/26 04:24:58;;;;;;;;;;;19.90;99.90;;;;;;5043936;28;20301;-71
2022/08/26 04:27:24;;;;;;;;;;;19.90;99.90;;;;;;5042384;28;19928;-73
2022/08/26 04:29:50;;;;;;;;;;;19.90;99.90;;;;;;5041955;28;19921;-73
2022/08/26 04:32:15;;;;;;;;;;;19.90;99.90;;;;;;5059092;28;19981;-73
2022/08/26 04:34:41;;;;;;;;;;;19.90;99.90;;;;;;5042315;28;20122;-73
2022/08/26 04:37:07;;;;;;;;;;;19.90;99.90;;;;;;5041879;28;19925;-74
2022/08/26 04:39:32;;;;;;;;;;;19.90;99.90;;;;;;5042915;28;19932;-74
2022/08/26 04:41:58;;;;;;;;;;;19.90;99.90;;;;;;5042306;28;19929;-73
2022/08/26 04:44:26;;;;;;;;;;;19.90;99.90;;;;;;5044954;28;19931;-73
2022/08/26 04:46:52;;;;;;;;;;;19.90;99.90;;;;;;5047079;28;20471;-73
2022/08/26 04:49:19;;;;;;;;;;;19.90;99.90;;;;;;5061346;28;19960;-73
2022/08/26 04:51:45;;;;;;;;;;;19.90;99.90;;;;;;5046273;28;19925;-73
2022/08/26 04:54:10;;;;;;;;;;;19.90;99.90;;;;;;5045915;28;19990;-73
2022/08/26 04:56:38;;;;;;;;;;;19.80;99.90;;;;;;5046666;28;19924;-73
2022/08/26 04:59:05;;;;;;;;;;;19.80;99.90;;;;;;5045442;28;19992;-73
2022/08/26 05:01:30;;;;;;;;;;;19.70;99.90;;;;;;5044769;28;19925;-73
2022/08/26 05:03:56;;;;;;;;;;;19.70;99.90;;;;;;5045576;28;19979;-73
2022/08/26 05:06:22;;;;;;;;;;;19.70;99.90;;;;;;5046829;28;20371;-73
2022/08/26 05:08:48;;;;;;;;;;;19.60;99.90;;;;;;5044929;28;19972;-73
2022/08/26 05:11:14;;;;;;;;;;;19.60;99.90;;;;;;5045362;28;20020;-73
2022/08/26 05:13:40;;;;;;;;;;;19.60;99.90;;;;;;5044332;28;20024;-74
2022/08/26 05:16:07;;;;;;;;;;;19.60;99.90;;;;;;5046307;28;19975;-74
2022/08/26 05:18:33;;;;;;;;;;;19.60;99.90;;;;;;5044256;28;19924;-75
2022/08/26 05:20:59;;;;;;;;;;;19.60;99.90;;;;;;5046450;28;19925;-72
2022/08/26 05:23:25;;;;;;;;;;;19.60;99.90;;;;;;5046925;28;19951;-72
2022/08/26 05:25:51;;;;;;;;;;;19.60;99.90;;;;;;5046197;28;19925;-72
2022/08/26 05:28:18;;;;;;;;;;;19.60;99.90;;;;;;5045656;28;19929;-72
2022/08/26 05:30:44;;;;;;;;;;;19.60;99.90;;;;;;5046102;28;19920;-72
2022/08/26 05:33:09;;;;;;;;;;;19.60;99.90;;;;;;5045376;28;20378;-72
2022/08/26 05:35:37;;;;;;;;;;;19.60;99.90;;;;;;5044958;28;19976;-75
2022/08/26 05:38:07;;;;;;;;;;;19.60;99.90;;;;;;5039711;28;20508;-77
2022/08/26 05:40:33;;;;;;;;;;;19.60;99.90;;;;;;5041356;28;20019;-78
2022/08/26 05:42:59;;;;;;;;;;;19.60;99.90;;;;;;5044557;28;19925;-75
2022/08/26 05:45:25;;;;;;;;;;;19.60;99.90;;;;;;5046377;28;19951;-78
2022/08/26 05:47:50;;;;;;;;;;;19.60;99.90;;;;;;5043763;28;20434;-74
2022/08/26 05:50:20;;;;;;;;;;;19.60;99.90;;;;;;5043762;28;19932;-74
2022/08/26 05:52:48;;;;;;;;;;;19.50;99.90;;;;;;5044604;28;19955;-76
2022/08/26 05:55:13;;;;;;;;;;;19.60;99.90;;;;;;5044365;28;19925;-76
2022/08/26 05:57:39;;;;;;;;;;;19.60;99.90;;;;;;5044039;28;19946;-76
2022/08/26 06:00:05;;;;;;;;;;;19.60;99.90;;;;;;5027501;28;19935;-75
2022/08/26 06:02:30;;;;;;;;;;;19.60;99.90;;;;;;5042989;28;19947;-75
2022/08/26 06:04:56;;;;;;;;;;;19.50;99.90;;;;;;5059975;28;19925;-75
2022/08/26 06:08:09;;;;;;;;;;;19.50;99.90;;;;;;5043539;28;19928;-77
2022/08/26 06:10:10;;;;;;;;;;;19.60;99.90;;;;;;5042973;28;20812;-74
2022/08/26 06:12:36;;;;;;;;;;;19.50;99.90;;;;;;5043934;28;20078;-73
2022/08/26 06:15:01;;;;;;;;;;;19.60;99.90;;;;;;5044316;28;20295;-75
2022/08/26 06:17:28;;;;;;;;;;;19.60;99.90;;;;;;5042329;28;19940;-75
2022/08/26 06:19:53;;;;;;;;;;;19.60;99.90;;;;;;5041132;28;19928;-74
2022/08/26 06:27:47;;;;;;;;;;;19.60;99.90;;;;;;5034101;28;19925;-76
2022/08/26 06:30:13;;;;;;;;;;;19.60;99.90;;;;;;5042674;28;19925;-74
2022/08/26 06:32:38;;;;;;;;;;;19.60;99.90;;;;;;5043494;28;20322;-77
2022/08/26 06:35:05;;;;;;;;;;;19.60;99.90;;;;;;5043106;28;20003;-74
2022/08/26 06:37:30;;;;;;;;;;;19.60;99.90;;;;;;5043971;28;19925;-74
2022/08/26 06:39:56;;;;;;;;;;;19.60;99.90;;;;;;5044950;28;19927;-74
2022/08/26 06:42:21;;;;;;;;;;;19.60;99.90;;;;;;5042283;28;20023;-74
2022/08/26 06:44:47;;;;;;;;;;;19.60;99.90;;;;;;5042327;28;20011;-74
2022/08/26 06:47:12;;;;;;;;;;;19.60;99.90;;;;;;5042453;28;19921;-75
2022/08/26 06:49:37;;;;;;;;;;;19.60;99.90;;;;;;5042852;28;20398;-75
2022/08/26 06:52:03;;;;;;;;;;;19.60;99.90;;;;;;5043756;28;19924;-75
2022/08/26 06:54:30;;;;;;;;;;;19.70;99.90;;;;;;5044253;28;20406;-74
2022/08/26 06:56:56;;;;;;;;;;;19.70;99.90;;;;;;5044682;28;19979;-75
2022/08/26 06:59:22;;;;;;;;;;;19.70;99.90;;;;;;5043809;28;20445;-75
2022/08/26 07:01:48;;;;;;;;;;;19.70;99.90;;;;;;5043831;28;19924;-74
2022/08/26 07:04:15;;;;;;;;;;;19.70;99.90;;;;;;5043368;28;20313;-75
2022/08/26 07:06:41;;;;;;;;;;;19.70;99.90;;;;;;5042974;28;19924;-74
2022/08/26 07:09:08;;;;;;;;;;;19.70;99.90;;;;;;5043698;28;20019;-75
2022/08/26 07:11:34;;;;;;;;;;;19.70;99.90;;;;;;5043290;28;19924;-75
2022/08/26 07:13:59;;;;;;;;;;;19.70;99.90;;;;;;5043261;28;19925;-75
2022/08/26 07:16:26;;;;;;;;;;;19.70;99.90;;;;;;5037609;28;20265;-74
2022/08/26 07:18:52;;;;;;;;;;;19.80;99.90;;;;;;5043389;28;19971;-74
2022/08/26 07:21:19;;;;;;;;;;;19.80;99.90;;;;;;5026425;28;19932;-74
2022/08/26 07:23:45;;;;;;;;;;;19.80;99.90;;;;;;5043900;28;19924;-74
2022/08/26 07:26:14;;;;;;;;;;;19.80;99.90;;;;;;5043076;28;19932;-74
2022/08/26 07:28:39;;;;;;;;;;;19.80;99.90;;;;;;5042823;28;19925;-74
2022/08/26 07:31:05;;;;;;;;;;;19.80;99.90;;;;;;5042457;28;20345;-74
2022/08/26 07:33:31;;;;;;;;;;;19.90;99.90;;;;;;5040918;28;19933;-75
2022/08/26 07:35:56;;;;;;;;;;;19.90;99.90;;;;;;5039064;28;19928;-76
2022/08/26 07:38:22;;;;;;;;;;;19.90;99.90;;;;;;5039278;28;19948;-74
2022/08/26 07:40:47;;;;;;;;;;;19.90;99.90;;;;;;5042036;28;19971;-73
2022/08/26 07:43:12;;;;;;;;;;;19.90;99.90;;;;;;5043495;28;20302;-78
2022/08/26 07:45:38;;;;;;;;;;;19.90;99.90;;;;;;5043236;28;19924;-77
2022/08/26 07:48:04;;;;;;;;;;;19.90;99.90;;;;;;5039973;28;19933;-78
2022/08/26 07:50:30;;;;;;;;;;;20.00;99.90;;;;;;5042857;28;20365;-78
2022/08/26 07:52:56;;;;;;;;;;;20.00;99.90;;;;;;5042226;28;20276;-77
2022/08/26 07:55:21;;;;;;;;;;;20.00;99.90;;;;;;5040002;28;20299;-78
2022/08/26 07:57:47;;;;;;;;;;;20.10;99.90;;;;;;5026745;28;19998;-78
2022/08/26 08:00:14;;;;;;;;;;;20.10;99.90;;;;;;5042968;28;20334;-78
2022/08/26 08:02:40;;;;;;;;;;;20.10;99.90;;;;;;5040902;28;20019;-77
2022/08/26 08:05:06;;;;;;;;;;;20.00;99.90;;;;;;5043904;28;20031;-78
2022/08/26 08:07:31;;;;;;;;;;;20.00;99.90;;;;;;5058505;28;19929;-76
2022/08/26 08:09:57;;;;;;;;;;;20.00;99.90;;;;;;5033002;28;19982;-75
2022/08/26 08:12:22;;;;;;;;;;;20.00;99.90;;;;;;5025716;28;20427;-76
2022/08/26 08:14:49;;;;;;;;;;;19.90;99.90;;;;;;5026907;28;20374;-75
2022/08/26 08:17:15;;;;;;;;;;;19.80;99.90;;;;;;5042158;28;19949;-75
2022/08/26 08:19:40;;;;;;;;;;;19.80;99.90;;;;;;5044770;28;19924;-75
2022/08/26 08:22:06;;;;;;;;;;;19.80;99.90;;;;;;5047551;28;20382;-75
2022/08/26 08:24:32;;;;;;;;;;;19.80;99.90;;;;;;5033679;28;19931;-75
2022/08/26 08:26:59;;;;;;;;;;;19.70;99.90;;;;;;5037266;28;20498;-73
2022/08/26 08:29:24;;;;;;;;;;;19.70;99.90;;;;;;5045057;28;19928;-73
2022/08/26 08:31:50;;;;;;;;;;;19.70;99.90;;;;;;5046162;28;20404;-73
2022/08/26 08:34:16;;;;;;;;;;;19.70;99.90;;;;;;5045908;28;20032;-73
2022/08/26 08:36:42;;;;;;;;;;;19.70;99.90;;;;;;5047129;28;20008;-72
2022/08/26 08:39:07;;;;;;;;;;;19.70;99.90;;;;;;5060049;28;19947;-72
2022/08/26 08:41:51;;;;;;;;;;;19.70;99.90;;;;;;5046173;28;19929;-72
2022/08/26 08:44:21;;;;;;;;;;;19.70;99.90;;;;;;5046471;28;19924;-73
2022/08/26 08:46:49;;;;;;;;;;;19.80;99.90;;;;;;5060748;28;20015;-72
2022/08/26 08:49:15;;;;;;;;;;;19.80;99.90;;;;;;5043705;28;19936;-75
2022/08/26 08:51:55;;;;;;;;;;;19.70;99.90;;;;;;5046011;28;19925;-75
2022/08/26 08:54:21;;;;;;;;;;;19.80;99.90;;;;;;5044356;28;20286;-75
2022/08/26 08:56:47;;;;;;;;;;;19.80;99.90;;;;;;5043195;28;19931;-75
2022/08/26 08:59:15;;;;;;;;;;;19.80;99.90;;;;;;5044323;28;19920;-75
2022/08/26 09:01:46;;;;;;;;;;;19.80;99.90;;;;;;5042792;28;19931;-74
2022/08/26 09:04:30;;;;;;;;;;;19.80;99.90;;;;;;5044277;28;19932;-74
2022/08/26 09:06:58;;;;;;;;;;;19.80;99.90;;;;;;5045112;28;19932;-75
2022/08/26 09:09:31;;;;;;;;;;;19.80;99.90;;;;;;5045912;28;19936;-74
2022/08/26 09:11:57;;;;;;;;;;;19.70;99.90;;;;;;5044608;28;20390;-74
2022/08/26 09:14:23;;;;;;;;;;;19.70;99.90;;;;;;5045608;28;20063;-75
2022/08/26 09:16:54;;;;;;;;;;;19.70;99.90;;;;;;5045204;28;19928;-74
2022/08/26 09:19:32;;;;;;;;;;;19.80;99.90;;;;;;5044818;28;19928;-75
2022/08/26 09:21:58;;;;;;;;;;;19.70;99.90;;;;;;5045795;28;19925;-75
2022/08/26 09:24:24;;;;;;;;;;;19.70;99.90;;;;;;5044444;28;19982;-75
2022/08/26 09:26:51;;;;;;;;;;;19.80;99.90;;;;;;5044908;28;19929;-74
2022/08/26 09:29:16;;;;;;;;;;;19.80;99.90;;;;;;5044433;28;19924;-75
2022/08/26 09:31:42;;;;;;;;;;;19.80;99.90;;;;;;5044758;28;19927;-75
2022/08/26 09:34:13;;;;;;;;;;;19.80;99.90;;;;;;5044353;28;20420;-75
2022/08/26 09:36:41;;;;;;;;;;;19.80;99.90;;;;;;5043514;28;19932;-75
2022/08/26 09:39:24;;;;;;;;;;;19.80;99.90;;;;;;5044928;28;19970;-75
2022/08/26 09:42:01;;;;;;;;;;;19.80;99.90;;;;;;5043135;28;20008;-75
2022/08/26 09:44:26;;;;;;;;;;;19.80;99.90;;;;;;5044055;28;20318;-75
2022/08/26 09:46:56;;;;;;;;;;;19.90;99.90;;;;;;5043059;28;19947;-75
2022/08/26 09:49:27;;;;;;;;;;;19.90;99.90;;;;;;5042865;28;19924;-75
2022/08/26 09:52:22;;;;;;;;;;;19.90;99.90;;;;;;5044939;28;19982;-75
2022/08/26 09:55:00;;;;;;;;;;;19.90;99.90;;;;;;5026474;28;19925;-75
2022/08/26 09:57:27;;;;;;;;;;;19.90;99.90;;;;;;5043861;28;19924;-75
2022/08/26 09:59:52;;;;;;;;;;;19.90;99.90;;;;;;5044314;28;19925;-75
2022/08/26 10:02:33;;;;;;;;;;;19.90;99.90;;;;;;5043202;28;19987;-74
2022/08/26 10:05:00;;;;;;;;;;;19.80;99.90;;;;;;5044664;28;20460;-75
2022/08/26 10:07:46;;;;;;;;;;;19.80;99.90;;;;;;5044998;28;19925;-75
2022/08/26 10:10:17;;;;;;;;;;;19.80;99.90;;;;;;5044727;28;19977;-75
2022/08/26 10:13:02;;;;;;;;;;;19.80;99.90;;;;;;5043945;28;19925;-75
2022/08/26 10:15:30;;;;;;;;;;;19.80;99.90;;;;;;5044541;28;20394;-75
2022/08/26 10:18:00;;;;;;;;;;;19.70;99.90;;;;;;5042841;28;19947;-75
2022/08/26 10:20:27;;;;;;;;;;;19.70;99.90;;;;;;5044533;28;19948;-75
2022/08/26 10:22:58;;;;;;;;;;;19.70;99.90;;;;;;5044419;28;19954;-75
2022/08/26 10:25:30;;;;;;;;;;;19.70;99.90;;;;;;5044381;28;20314;-74
2022/08/26 10:27:59;;;;;;;;;;;19.80;99.90;;;;;;5043761;28;20164;-75
2022/08/26 10:30:30;;;;;;;;;;;19.80;99.90;;;;;;5042901;28;20045;-75
2022/08/26 10:32:59;;;;;;;;;;;19.80;99.90;;;;;;5043601;28;19932;-75
2022/08/26 10:35:25;;;;;;;;;;;19.80;99.90;;;;;;5044057;28;20375;-75
2022/08/26 10:37:53;;;;;;;;;;;19.80;99.90;;;;;;5043794;28;20366;-75
2022/08/26 10:40:23;;;;;;;;;;;19.80;99.90;;;;;;5043894;28;19929;-74
2022/08/26 10:42:53;;;;;;;;;;;19.80;99.90;;;;;;5043778;28;19932;-75
2022/08/26 10:45:21;;;;;;;;;;;19.80;99.90;;;;;;5042690;28;20170;-75
2022/08/26 10:47:52;;;;;;;;;;;19.80;99.90;;;;;;5042740;28;19921;-74
2022/08/26 10:50:19;;;;;;;;;;;19.90;99.90;;;;;;5043560;28;20089;-75
2022/08/26 10:53:03;;;;;;;;;;;19.90;99.90;;;;;;5042895;28;20322;-75
2022/08/26 10:55:46;;;;;;;;;;;19.90;99.90;;;;;;5041745;28;20144;-75
2022/08/26 10:58:11;;;;;;;;;;;19.90;99.90;;;;;;5041869;28;20216;-75
2022/08/26 11:03:31;;;;;;;;;;;19.90;99.90;;;;;;5042806;28;19936;-75
2022/08/26 11:06:16;;;;;;;;;;;19.90;99.90;;;;;;5041758;28;19925;-80
2022/08/26 11:08:46;;;;;;;;;;;19.90;99.90;;;;;;5043099;28;19975;-74
2022/08/26 11:11:31;;;;;;;;;;;19.90;99.90;;;;;;5040886;28;19920;-75
2022/08/26 11:14:02;;;;;;;;;;;20.00;99.90;;;;;;5022274;28;19937;-74
2022/08/26 11:16:32;;;;;;;;;;;20.00;99.90;;;;;;5042300;28;19956;-74
2022/08/26 11:18:58;;;;;;;;;;;20.00;99.90;;;;;;5041289;28;20441;-75
2022/08/26 11:21:45;;;;;;;;;;;20.10;99.90;;;;;;5043065;28;19929;-75
2022/08/26 11:24:29;;;;;;;;;;;20.10;99.90;;;;;;5020240;28;19928;-75
2022/08/26 11:26:54;;;;;;;;;;;20.10;99.90;;;;;;5041875;28;20621;-75
2022/08/26 11:29:38;;;;;;;;;;;20.10;99.90;;;;;;5043492;28;19929;-75
2022/08/26 11:32:04;;;;;;;;;;;20.10;99.90;;;;;;5054831;28;20302;-75
2022/08/26 11:34:56;;;;;;;;;;;20.10;99.90;;;;;;5040019;28;19924;-75
2022/08/26 11:37:24;;;;;;;;;;;20.10;99.90;;;;;;5038537;28;19948;-75
2022/08/26 11:39:52;;;;;;;;;;;20.10;99.90;;;;;;5042849;28;19932;-74
2022/08/26 11:42:39;;;;;;;;;;;20.20;99.90;;;;;;5043303;28;19932;-74
2022/08/26 11:45:17;;;;;;;;;;;20.20;99.90;;;;;;5042768;28;19932;-75
2022/08/26 11:47:43;;;;;;;;;;;20.30;99.90;;;;;;5041124;28;19932;-74
2022/08/26 11:50:15;;;;;;;;;;;20.30;99.90;;;;;;5042128;28;19924;-74
2022/08/26 11:52:49;;;;;;;;;;;20.30;99.90;;;;;;5042243;28;19925;-75
2022/08/26 11:55:15;;;;;;;;;;;20.40;99.90;;;;;;5058750;28;19925;-74
2022/08/26 11:57:45;;;;;;;;;;;20.50;99.90;;;;;;5041961;28;19948;-74
2022/08/26 12:00:22;;;;;;;;;;;20.50;99.90;;;;;;5037152;28;19932;-75
2022/08/26 12:02:47;;;;;;;;;;;20.60;99.90;;;;;;5028622;28;19961;-73
2022/08/26 12:05:20;;;;;;;;;;;20.60;99.90;;;;;;5041119;28;20026;-73
2022/08/26 12:07:49;;;;;;;;;;;20.60;99.90;;;;;;5042069;28;20632;-72
2022/08/26 12:10:29;;;;;;;;;;;20.60;99.90;;;;;;5043211;28;20008;-73
2022/08/26 12:12:56;;;;;;;;;;;20.60;99.90;;;;;;5041687;28;19964;-74
2022/08/26 12:15:22;;;;;;;;;;;20.70;99.90;;;;;;5040198;28;19931;-74
2022/08/26 12:17:49;;;;;;;;;;;20.70;99.90;;;;;;5039547;28;20023;-73
2022/08/26 12:20:29;;;;;;;;;;;20.70;99.90;;;;;;5035656;28;19964;-74
2022/08/26 12:22:57;;;;;;;;;;;20.70;99.90;;;;;;5038139;28;19986;-74
2022/08/26 12:25:23;;;;;;;;;;;20.60;99.90;;;;;;5035119;28;19928;-74
2022/08/26 12:27:49;;;;;;;;;;;20.60;99.90;;;;;;5035799;28;19929;-74
2022/08/26 12:30:16;;;;;;;;;;;20.60;99.90;;;;;;5034752;28;21233;-75
2022/08/26 12:32:43;;;;;;;;;;;20.60;99.90;;;;;;5041165;28;19967;-75
2022/08/26 12:35:10;;;;;;;;;;;20.50;99.90;;;;;;5042197;28;20481;-76
2022/08/26 12:37:37;;;;;;;;;;;20.50;99.90;;;;;;5041273;28;19925;-73
2022/08/26 12:40:21;;;;;;;;;;;20.50;99.90;;;;;;5042171;28;20850;-75
2022/08/26 12:42:47;;;;;;;;;;;20.50;99.90;;;;;;5042363;28;19929;-76
2022/08/26 12:45:24;;;;;;;;;;;20.50;99.90;;;;;;5042114;28;19986;-74
2022/08/26 12:47:53;;;;;;;;;;;20.50;99.90;;;;;;5040541;28;19925;-75
2022/08/26 12:50:25;;;;;;;;;;;20.50;99.90;;;;;;5042250;28;20006;-72
2022/08/26 12:52:56;;;;;;;;;;;20.50;99.90;;;;;;5040261;28;19921;-72
2022/08/26 12:55:30;;;;;;;;;;;20.60;99.90;;;;;;5042924;28;20302;-72
2022/08/26 12:58:28;;;;;;;;;;;20.60;99.90;;;;;;5042052;28;20272;-72
2022/08/26 13:01:15;;;;;;;;;;;20.50;99.90;;;;;;5036109;28;19925;-73
2022/08/26 13:03:42;;;;;;;;;;;20.60;99.90;;;;;;5049705;28;20015;-73
2022/08/26 13:06:08;;;;;;;;;;;20.60;99.90;;;;;;5044591;28;19925;-73
2022/08/26 13:08:33;;;;;;;;;;;20.60;99.90;;;;;;5046616;28;19971;-73
2022/08/26 13:11:03;;;;;;;;;;;20.50;99.90;;;;;;5045339;28;19925;-73
2022/08/26 13:13:29;;;;;;;;;;;20.60;99.90;;;;;;5044818;28;19935;-74
2022/08/26 13:15:55;;;;;;;;;;;20.50;99.90;;;;;;5045573;28;19924;-73
2022/08/26 13:18:20;;;;;;;;;;;20.50;99.90;;;;;;5044252;28;20059;-72
2022/08/26 13:20:45;;;;;;;;;;;20.50;99.90;;;;;;5044359;28;19990;-72
2022/08/26 13:23:11;;;;;;;;;;;20.50;99.90;;;;;;5045681;28;20020;-69
2022/08/26 13:25:36;;;;;;;;;;;20.50;99.90;;;;;;5046043;28;19952;-69
2022/08/26 13:28:02;;;;;;;;;;;20.50;99.90;;;;;;5046219;28;20012;-71
2022/08/26 13:30:27;;;;;;;;;;;20.50;99.90;;;;;;5046665;28;20421;-71
2022/08/26 13:32:56;;;;;;;;;;;20.50;99.90;;;;;;5044881;28;19928;-70
2022/08/26 13:35:21;;;;;;;;;;;20.50;99.90;;;;;;5043563;28;19928;-71
2022/08/26 13:37:46;;;;;;;;;;;20.50;99.90;;;;;;5043739;28;19947;-70
2022/08/26 13:40:13;;;;;;;;;;;20.50;99.90;;;;;;5045117;28;19925;-72
2022/08/26 13:42:38;;;;;;;;;;;20.50;99.90;;;;;;5045659;28;19924;-73
2022/08/26 13:45:05;;;;;;;;;;;20.50;99.90;;;;;;5046026;28;19979;-72
2022/08/26 13:47:30;;;;;;;;;;;20.50;99.90;;;;;;5043816;28;19925;-72
2022/08/26 13:49:56;;;;;;;;;;;20.50;99.90;;;;;;5045122;28;19925;-73
2022/08/26 13:52:22;;;;;;;;;;;20.50;99.90;;;;;;5044942;28;19947;-72
2022/08/26 13:54:47;;;;;;;;;;;20.40;99.90;;;;;;5045063;28;19924;-73
2022/08/26 13:57:13;;;;;;;;;;;20.40;99.90;;;;;;5044652;28;19929;-72
2022/08/26 13:59:39;;;;;;;;;;;20.40;99.90;;;;;;5041846;28;19982;-74
2022/08/26 14:02:04;;;;;;;;;;;20.30;99.90;;;;;;5042904;28;20034;-71
2022/08/26 14:04:30;;;;;;;;;;;20.30;99.90;;;;;;5042268;28;19980;-71
2022/08/26 14:06:56;;;;;;;;;;;20.30;99.90;;;;;;5042704;28;19933;-76
2022/08/26 14:09:21;;;;;;;;;;;20.40;99.90;;;;;;5041350;28;20302;-72
2022/08/26 14:11:47;;;;;;;;;;;20.40;99.90;;;;;;5043851;28;19931;-71
2022/08/26 14:14:12;;;;;;;;;;;20.40;99.90;;;;;;5043439;28;19948;-71
2022/08/26 14:16:38;;;;;;;;;;;20.50;99.90;;;;;;5040804;28;19951;-70
2022/08/26 14:19:05;;;;;;;;;;;20.50;99.90;;;;;;5041534;28;19921;-71
2022/08/26 14:21:32;;;;;;;;;;;20.50;99.90;;;;;;5043034;28;19932;-71
2022/08/26 14:23:57;;;;;;;;;;;20.40;99.90;;;;;;5043590;28;20224;-71
2022/08/26 14:26:23;;;;;;;;;;;20.50;99.90;;;;;;5042577;28;20678;-76
2022/08/26 14:28:49;;;;;;;;;;;20.50;99.90;;;;;;5050346;28;19935;-71
2022/08/26 14:31:14;;;;;;;;;;;20.50;99.90;;;;;;5032590;28;19944;-72